createdAt,value
2018-03-30T00:00:06.257Z,0
2018-03-30T00:00:46.604Z,0
2018-03-30T00:01:26.997Z,0
2018-03-30T00:02:07.386Z,0
2018-03-30T00:02:47.884Z,0
2018-03-30T00:03:28.211Z,0
2018-03-30T00:04:08.621Z,0
2018-03-30T00:04:50.514Z,0
2018-03-30T00:05:30.900Z,0
2018-03-30T00:06:11.295Z,0
2018-03-30T00:06:51.661Z,0
2018-03-30T00:07:32.067Z,0
2018-03-30T00:08:13.998Z,0
2018-03-30T00:08:54.215Z,0
2018-03-30T00:09:34.615Z,0
2018-03-30T00:10:14.980Z,0
2018-03-30T00:10:55.400Z,0
2018-03-30T00:11:37.322Z,0
2018-03-30T00:12:17.704Z,0
2018-03-30T00:12:58.106Z,0
2018-03-30T00:13:38.450Z,0
2018-03-30T00:17:26.103Z,0
2018-03-30T00:18:06.448Z,0
2018-03-30T00:18:46.866Z,0
2018-03-30T00:19:27.244Z,0
2018-03-30T00:20:07.649Z,0
2018-03-30T00:20:48.045Z,0
2018-03-30T00:21:28.416Z,0
2018-03-30T00:22:08.775Z,0
2018-03-30T00:22:49.199Z,0
2018-03-30T00:23:29.595Z,0
2018-03-30T00:24:09.948Z,0
2018-03-30T00:24:50.350Z,0
2018-03-30T00:25:30.972Z,0
2018-03-30T00:26:11.326Z,0
2018-03-30T00:26:51.709Z,0
2018-03-30T00:27:32.121Z,0
2018-03-30T00:28:12.505Z,0
2018-03-30T00:28:52.933Z,0
2018-03-30T00:29:33.304Z,0
2018-03-30T00:30:13.655Z,0
2018-03-30T00:30:54.172Z,0
2018-03-30T00:31:34.675Z,0
2018-03-30T00:32:16.557Z,0
2018-03-30T00:32:56.997Z,0
2018-03-30T00:33:37.888Z,0
2018-03-30T00:34:18.441Z,0
2018-03-30T00:34:59.687Z,0
2018-03-30T00:35:40.087Z,0
2018-03-30T00:36:20.635Z,0
2018-03-30T00:37:01.022Z,0
2018-03-30T00:37:41.428Z,0
2018-03-30T00:38:22.522Z,0
2018-03-30T00:39:04.688Z,0
2018-03-30T00:39:45.881Z,0
2018-03-30T00:40:25.733Z,0
2018-03-30T00:41:06.136Z,0
2018-03-30T00:41:49.614Z,0
2018-03-30T00:42:30.339Z,0
2018-03-30T00:43:10.731Z,0
2018-03-30T00:45:56.755Z,0
2018-03-30T00:46:38.535Z,0
2018-03-30T00:47:18.973Z,0
2018-03-30T00:47:59.924Z,0
2018-03-30T00:48:40.456Z,0
2018-03-30T00:49:22.624Z,0
2018-03-30T00:50:02.934Z,0
2018-03-30T00:50:43.368Z,0
2018-03-30T00:51:24.151Z,0
2018-03-30T00:52:05.511Z,0
2018-03-30T00:52:45.782Z,0
2018-03-30T00:53:26.002Z,0
2018-03-30T00:54:06.453Z,0
2018-03-30T00:54:47.537Z,0
2018-03-30T00:55:28.248Z,0
2018-03-30T00:56:10.428Z,0
2018-03-30T00:56:51.107Z,0
2018-03-30T00:57:32.725Z,0
2018-03-30T00:59:52.226Z,0
2018-03-30T01:00:31.980Z,0
2018-03-30T01:01:12.210Z,0
2018-03-30T01:01:52.641Z,0
2018-03-30T01:02:33.009Z,0
2018-03-30T01:03:13.427Z,0
2018-03-30T01:03:53.844Z,0
2018-03-30T01:04:34.222Z,0
2018-03-30T01:05:14.690Z,0
2018-03-30T01:05:55.604Z,0
2018-03-30T01:06:35.926Z,0
2018-03-30T01:07:16.254Z,0
2018-03-30T01:07:56.697Z,0
2018-03-30T01:08:37.079Z,0
2018-03-30T01:09:17.479Z,0
2018-03-30T01:10:00.505Z,0
2018-03-30T01:10:40.889Z,0
2018-03-30T01:11:21.270Z,0
2018-03-30T01:12:01.612Z,0
2018-03-30T01:12:42.092Z,0
2018-03-30T01:13:22.411Z,0
2018-03-30T01:14:03.022Z,0
2018-03-30T01:14:43.452Z,0
2018-03-30T01:15:23.862Z,0
2018-03-30T01:16:04.236Z,0
2018-03-30T01:16:44.724Z,0
2018-03-30T01:17:25.128Z,0
2018-03-30T01:18:05.609Z,0
2018-03-30T01:18:46.015Z,0
2018-03-30T01:19:26.452Z,0
2018-03-30T01:20:06.807Z,0
2018-03-30T01:20:47.169Z,0
2018-03-30T01:21:27.613Z,0
2018-03-30T01:22:07.987Z,0
2018-03-30T01:22:48.353Z,0
2018-03-30T01:23:28.764Z,0
2018-03-30T01:24:09.137Z,0
2018-03-30T01:24:49.774Z,0
2018-03-30T01:25:30.200Z,0
2018-03-30T01:26:11.108Z,0
2018-03-30T01:26:51.532Z,0
2018-03-30T01:27:31.931Z,0
2018-03-30T01:28:12.402Z,0
2018-03-30T01:28:52.712Z,0
2018-03-30T01:29:33.092Z,0
2018-03-30T01:30:13.456Z,0
2018-03-30T01:30:54.028Z,0
2018-03-30T01:31:34.342Z,0
2018-03-30T01:32:14.739Z,0
2018-03-30T01:32:55.129Z,0
2018-03-30T01:33:35.558Z,0
2018-03-30T01:34:15.947Z,0
2018-03-30T01:34:56.340Z,0
2018-03-30T01:35:36.745Z,0
2018-03-30T01:36:17.631Z,0
2018-03-30T01:36:57.726Z,0
2018-03-30T01:37:38.125Z,0
2018-03-30T01:38:18.526Z,0
2018-03-30T01:38:58.887Z,0
2018-03-30T01:39:39.322Z,0
2018-03-30T01:40:19.704Z,0
2018-03-30T01:41:00.133Z,0
2018-03-30T01:41:40.513Z,0
2018-03-30T01:42:20.905Z,0
2018-03-30T01:43:01.302Z,0
2018-03-30T01:43:41.693Z,0
2018-03-30T01:44:22.092Z,0
2018-03-30T01:45:02.482Z,0
2018-03-30T01:45:42.936Z,0
2018-03-30T01:46:23.331Z,0
2018-03-30T01:47:03.651Z,0
2018-03-30T01:47:44.025Z,0
2018-03-30T01:48:24.451Z,0
2018-03-30T01:49:04.875Z,0
2018-03-30T01:49:45.213Z,0
2018-03-30T01:50:25.575Z,0
2018-03-30T01:51:05.986Z,0
2018-03-30T01:51:46.380Z,0
2018-03-30T01:52:26.738Z,0
2018-03-30T01:53:07.168Z,0
2018-03-30T01:53:47.543Z,0
2018-03-30T01:54:28.004Z,0
2018-03-30T01:55:08.412Z,0
2018-03-30T01:55:48.808Z,0
2018-03-30T01:56:29.147Z,0
2018-03-30T01:57:09.564Z,0
2018-03-30T01:57:49.950Z,0
2018-03-30T01:58:30.376Z,0
2018-03-30T01:59:10.737Z,0
2018-03-30T01:59:51.172Z,0
2018-03-30T02:00:31.540Z,0
2018-03-30T02:01:11.950Z,0
2018-03-30T02:01:52.326Z,0
2018-03-30T02:02:32.699Z,0
2018-03-30T02:03:13.111Z,0
2018-03-30T02:03:53.502Z,0
2018-03-30T02:04:33.920Z,0
2018-03-30T02:05:14.337Z,0
2018-03-30T02:05:54.683Z,0
2018-03-30T02:06:35.067Z,0
2018-03-30T02:07:15.513Z,0
2018-03-30T02:07:55.887Z,0
2018-03-30T02:08:36.246Z,0
2018-03-30T02:09:16.657Z,0
2018-03-30T02:09:57.041Z,0
2018-03-30T02:10:37.424Z,0
2018-03-30T02:11:17.798Z,0
2018-03-30T02:11:58.218Z,0
2018-03-30T02:12:38.599Z,0
2018-03-30T02:13:19.005Z,0
2018-03-30T02:13:59.445Z,0
2018-03-30T02:14:39.828Z,0
2018-03-30T02:15:20.236Z,0
2018-03-30T02:16:00.623Z,0
2018-03-30T02:16:40.989Z,0
2018-03-30T02:17:21.401Z,0
2018-03-30T02:18:01.761Z,0
2018-03-30T02:18:42.205Z,0
2018-03-30T02:19:22.539Z,0
2018-03-30T02:20:02.939Z,0
2018-03-30T02:20:43.301Z,0
2018-03-30T02:21:23.734Z,0
2018-03-30T02:22:04.126Z,0
2018-03-30T02:22:44.488Z,0
2018-03-30T02:23:24.875Z,0
2018-03-30T02:24:05.261Z,0
2018-03-30T02:24:45.694Z,0
2018-03-30T02:25:26.050Z,0
2018-03-30T02:26:06.432Z,0
2018-03-30T02:26:46.851Z,0
2018-03-30T02:27:27.250Z,0
2018-03-30T02:28:07.636Z,0
2018-03-30T02:28:48.056Z,0
2018-03-30T02:29:28.465Z,0
2018-03-30T02:30:08.832Z,0
2018-03-30T02:30:49.225Z,0
2018-03-30T02:31:29.603Z,0
2018-03-30T02:32:10.011Z,0
2018-03-30T02:32:50.857Z,0
2018-03-30T02:33:31.244Z,0
2018-03-30T02:34:11.625Z,0
2018-03-30T02:34:52.009Z,0
2018-03-30T02:35:32.437Z,0
2018-03-30T02:36:12.787Z,0
2018-03-30T02:36:53.174Z,0
2018-03-30T02:37:33.734Z,0
2018-03-30T02:38:14.061Z,0
2018-03-30T02:38:54.397Z,0
2018-03-30T02:39:34.744Z,0
2018-03-30T02:40:15.176Z,0
2018-03-30T02:40:55.540Z,0
2018-03-30T02:41:35.925Z,0
2018-03-30T02:42:16.366Z,0
2018-03-30T02:42:56.740Z,0
2018-03-30T02:43:37.154Z,0
2018-03-30T02:44:17.513Z,0
2018-03-30T02:44:57.917Z,0
2018-03-30T02:45:38.298Z,0
2018-03-30T02:46:18.719Z,0
2018-03-30T02:46:59.112Z,0
2018-03-30T02:47:39.530Z,0
2018-03-30T02:48:19.901Z,0
2018-03-30T02:49:00.333Z,0
2018-03-30T02:49:40.706Z,0
2018-03-30T02:50:21.085Z,0
2018-03-30T02:51:01.527Z,0
2018-03-30T02:51:41.956Z,0
2018-03-30T02:52:22.343Z,0
2018-03-30T02:53:02.763Z,0
2018-03-30T02:53:43.169Z,0
2018-03-30T02:54:23.551Z,0
2018-03-30T02:55:03.971Z,0
2018-03-30T02:55:44.337Z,0
2018-03-30T02:56:24.760Z,0
2018-03-30T02:57:05.159Z,0
2018-03-30T02:57:45.846Z,0
2018-03-30T02:58:26.274Z,0
2018-03-30T02:59:06.618Z,0
2018-03-30T02:59:47.026Z,0
2018-03-30T03:00:27.478Z,0
2018-03-30T03:01:07.819Z,0
2018-03-30T03:01:48.675Z,0
2018-03-30T03:02:29.080Z,0
2018-03-30T03:03:09.470Z,0
2018-03-30T03:03:50.058Z,0
2018-03-30T03:04:30.446Z,0
2018-03-30T03:05:10.818Z,0
2018-03-30T03:05:51.201Z,0
2018-03-30T03:06:31.614Z,0
2018-03-30T03:07:12.436Z,0
2018-03-30T03:07:52.480Z,0
2018-03-30T03:08:32.918Z,0
2018-03-30T03:09:13.361Z,0
2018-03-30T03:09:53.796Z,0
2018-03-30T03:10:34.229Z,0
2018-03-30T03:11:14.557Z,0
2018-03-30T03:11:54.975Z,0
2018-03-30T03:12:36.504Z,0
2018-03-30T03:13:18.677Z,0
2018-03-30T03:13:59.088Z,0
2018-03-30T03:14:39.551Z,0
2018-03-30T03:15:19.855Z,0
2018-03-30T03:16:00.273Z,0
2018-03-30T03:16:40.596Z,0
2018-03-30T03:17:21.003Z,0
2018-03-30T03:18:01.368Z,0
2018-03-30T03:18:41.748Z,0
2018-03-30T03:19:22.183Z,0
2018-03-30T03:20:02.534Z,0
2018-03-30T03:20:42.967Z,0
2018-03-30T03:21:23.335Z,0
2018-03-30T03:22:03.716Z,0
2018-03-30T03:22:44.117Z,0
2018-03-30T03:23:24.467Z,0
2018-03-30T03:24:04.864Z,0
2018-03-30T03:24:45.247Z,0
2018-03-30T03:25:25.669Z,0
2018-03-30T03:26:06.023Z,0
2018-03-30T03:28:22.438Z,0
2018-03-30T03:29:02.717Z,0
2018-03-30T03:29:43.104Z,0
2018-03-30T03:30:23.527Z,0
2018-03-30T03:31:03.887Z,0
2018-03-30T03:31:44.265Z,0
2018-03-30T03:32:24.642Z,0
2018-03-30T03:33:05.042Z,0
2018-03-30T03:33:45.420Z,0
2018-03-30T03:34:25.807Z,0
2018-03-30T03:35:06.197Z,0
2018-03-30T03:35:46.575Z,0
2018-03-30T03:36:26.972Z,0
2018-03-30T03:37:07.330Z,0
2018-03-30T03:37:47.772Z,0
2018-03-30T03:38:28.178Z,0
2018-03-30T03:39:08.535Z,0
2018-03-30T03:39:48.891Z,0
2018-03-30T03:40:29.309Z,0
2018-03-30T03:41:09.652Z,0
2018-03-30T03:41:50.028Z,0
2018-03-30T03:42:30.412Z,0
2018-03-30T03:43:10.823Z,0
2018-03-30T03:43:51.274Z,0
2018-03-30T03:44:31.616Z,0
2018-03-30T03:45:12.019Z,0
2018-03-30T03:45:52.464Z,0
2018-03-30T03:46:32.865Z,0
2018-03-30T03:47:13.232Z,0
2018-03-30T03:47:53.641Z,0
2018-03-30T03:48:34.065Z,0
2018-03-30T03:49:14.449Z,0
2018-03-30T03:49:54.826Z,0
2018-03-30T03:50:35.218Z,0
2018-03-30T03:51:15.597Z,0
2018-03-30T03:51:56.001Z,0
2018-03-30T03:52:36.375Z,0
2018-03-30T03:53:16.790Z,0
2018-03-30T03:53:57.225Z,0
2018-03-30T03:54:37.537Z,0
2018-03-30T03:55:17.944Z,0
2018-03-30T03:55:58.349Z,0
2018-03-30T03:56:38.769Z,0
2018-03-30T03:57:19.139Z,0
2018-03-30T03:57:59.507Z,0
2018-03-30T03:58:39.936Z,0
2018-03-30T03:59:20.324Z,0
2018-03-30T04:00:00.696Z,0
2018-03-30T04:00:41.097Z,0
2018-03-30T04:01:21.479Z,0
2018-03-30T04:02:01.917Z,0
2018-03-30T04:02:42.329Z,0
2018-03-30T04:03:22.723Z,0
2018-03-30T04:04:03.053Z,0
2018-03-30T04:45:31.086Z,0
2018-03-30T04:46:11.405Z,0
2018-03-30T04:46:51.762Z,0
2018-03-30T04:47:32.157Z,0
2018-03-30T04:48:12.532Z,0
2018-03-30T04:48:52.955Z,0
2018-03-30T04:49:33.351Z,0
2018-03-30T04:50:13.701Z,0
2018-03-30T04:50:54.103Z,0
2018-03-30T04:51:34.491Z,0
2018-03-30T04:52:14.860Z,0
2018-03-30T04:52:55.281Z,0
2018-03-30T04:53:35.643Z,0
2018-03-30T04:54:16.034Z,0
2018-03-30T04:54:56.422Z,0
2018-03-30T04:55:36.924Z,0
2018-03-30T04:56:17.336Z,0
2018-03-30T04:56:57.689Z,0
2018-03-30T04:57:38.117Z,0
2018-03-30T04:58:18.514Z,0
2018-03-30T04:58:58.893Z,0
2018-03-30T04:59:39.337Z,0
2018-03-30T05:00:19.689Z,0
2018-03-30T05:01:00.085Z,0
2018-03-30T05:01:40.495Z,0
2018-03-30T05:02:20.900Z,0
2018-03-30T05:03:01.277Z,0
2018-03-30T05:03:41.642Z,0
2018-03-30T05:04:22.067Z,0
2018-03-30T05:05:02.475Z,0
2018-03-30T05:05:42.865Z,0
2018-03-30T05:06:23.228Z,0
2018-03-30T05:07:03.634Z,0
2018-03-30T05:07:44.060Z,0
2018-03-30T05:08:24.412Z,0
2018-03-30T05:09:04.822Z,0
2018-03-30T05:09:45.195Z,0
2018-03-30T05:10:25.630Z,0
2018-03-30T05:11:06.048Z,0
2018-03-30T05:11:46.441Z,0
2018-03-30T05:12:26.815Z,0
2018-03-30T05:13:07.187Z,0
2018-03-30T05:13:47.638Z,0
2018-03-30T05:14:28.029Z,0
2018-03-30T05:15:08.394Z,0
2018-03-30T05:15:48.786Z,0
2018-03-30T05:16:29.159Z,0
2018-03-30T05:17:09.555Z,0
2018-03-30T05:17:49.934Z,0
2018-03-30T05:18:30.315Z,0
2018-03-30T05:19:10.779Z,0
2018-03-30T05:19:51.233Z,0
2018-03-30T05:20:31.595Z,0
2018-03-30T05:21:12.006Z,0
2018-03-30T05:21:52.343Z,0
2018-03-30T05:22:32.747Z,0
2018-03-30T05:23:13.122Z,0
2018-03-30T05:23:53.511Z,0
2018-03-30T05:24:33.895Z,0
2018-03-30T05:25:14.292Z,0
2018-03-30T05:25:54.654Z,0
2018-03-30T05:26:35.070Z,0
2018-03-30T05:27:15.496Z,0
2018-03-30T05:27:55.919Z,0
2018-03-30T05:28:36.273Z,0
2018-03-30T05:29:16.675Z,0
2018-03-30T05:29:57.096Z,0
2018-03-30T05:30:37.462Z,0
2018-03-30T05:31:17.848Z,0
2018-03-30T05:31:58.259Z,0
2018-03-30T05:32:38.666Z,0
2018-03-30T05:33:19.070Z,0
2018-03-30T05:33:59.456Z,0
2018-03-30T05:34:39.870Z,0
2018-03-30T05:35:20.271Z,0
2018-03-30T05:36:00.645Z,0
2018-03-30T05:36:41.045Z,0
2018-03-30T05:37:21.457Z,5
2018-03-30T05:38:01.838Z,5
2018-03-30T05:38:42.260Z,5
2018-03-30T05:39:22.622Z,5
2018-03-30T05:40:03.012Z,5
2018-03-30T05:40:43.415Z,5
2018-03-30T05:41:23.864Z,5
2018-03-30T05:42:04.225Z,5
2018-03-30T05:42:44.626Z,10
2018-03-30T05:43:25.055Z,10
2018-03-30T05:44:05.414Z,15
2018-03-30T05:44:45.830Z,15
2018-03-30T05:45:26.237Z,20
2018-03-30T05:46:06.658Z,15
2018-03-30T05:46:47.384Z,15
2018-03-30T05:47:27.419Z,10
2018-03-30T05:48:07.861Z,10
2018-03-30T05:48:48.246Z,10
2018-03-30T05:49:28.592Z,10
2018-03-30T05:50:09.004Z,10
2018-03-30T05:50:49.396Z,10
2018-03-30T05:51:29.774Z,10
2018-03-30T05:52:10.170Z,10
2018-03-30T05:52:50.637Z,10
2018-03-30T05:53:30.983Z,10
2018-03-30T05:54:11.380Z,15
2018-03-30T05:54:51.781Z,15
2018-03-30T05:55:32.150Z,15
2018-03-30T05:56:12.572Z,20
2018-03-30T05:56:52.940Z,20
2018-03-30T05:57:33.383Z,20
2018-03-30T05:58:13.785Z,20
2018-03-30T05:58:54.194Z,25
2018-03-30T05:59:34.575Z,25
2018-03-30T06:00:15.004Z,25
2018-03-30T06:00:55.397Z,25
2018-03-30T06:01:35.757Z,30
2018-03-30T06:02:16.184Z,25
2018-03-30T06:02:56.513Z,25
2018-03-30T06:03:36.894Z,25
2018-03-30T06:04:17.327Z,25
2018-03-30T06:04:57.736Z,25
2018-03-30T06:05:38.136Z,30
2018-03-30T06:06:18.570Z,30
2018-03-30T06:06:58.924Z,30
2018-03-30T06:07:39.365Z,35
2018-03-30T06:08:19.773Z,35
2018-03-30T06:09:00.148Z,30
2018-03-30T06:09:40.585Z,25
2018-03-30T06:10:21.000Z,30
2018-03-30T06:11:01.386Z,35
2018-03-30T06:11:41.777Z,30
2018-03-30T06:12:22.183Z,25
2018-03-30T06:13:02.571Z,25
2018-03-30T06:13:42.933Z,25
2018-03-30T06:14:23.316Z,25
2018-03-30T06:16:42.933Z,25
2018-03-30T06:17:23.821Z,25
2018-03-30T06:18:04.200Z,25
2018-03-30T06:18:44.609Z,30
2018-03-30T06:19:24.969Z,30
2018-03-30T06:20:05.363Z,30
2018-03-30T06:20:45.760Z,35
2018-03-30T06:21:26.132Z,35
2018-03-30T06:22:06.527Z,35
2018-03-30T06:22:47.021Z,40
2018-03-30T06:23:27.418Z,40
2018-03-30T06:24:07.796Z,50
2018-03-30T06:24:48.178Z,50
2018-03-30T06:25:28.567Z,60
2018-03-30T06:26:08.949Z,50
2018-03-30T06:28:42.939Z,40
2018-03-30T06:29:23.320Z,40
2018-03-30T06:30:03.734Z,35
2018-03-30T06:30:44.130Z,35
2018-03-30T06:31:24.502Z,35
2018-03-30T06:32:04.961Z,35
2018-03-30T06:32:45.356Z,30
2018-03-30T06:33:25.754Z,30
2018-03-30T06:34:06.179Z,30
2018-03-30T06:34:46.516Z,30
2018-03-30T06:35:26.963Z,30
2018-03-30T06:36:07.331Z,30
2018-03-30T06:36:47.727Z,30
2018-03-30T06:37:28.144Z,35
2018-03-30T06:38:08.575Z,35
2018-03-30T06:38:48.929Z,35
2018-03-30T06:39:29.379Z,40
2018-03-30T06:40:09.743Z,40
2018-03-30T06:40:50.117Z,40
2018-03-30T06:41:30.562Z,45
2018-03-30T06:42:10.946Z,50
2018-03-30T06:42:51.340Z,55
2018-03-30T06:43:31.756Z,60
2018-03-30T06:44:12.217Z,60
2018-03-30T06:44:52.529Z,65
2018-03-30T06:45:32.914Z,85
2018-03-30T06:46:13.345Z,115
2018-03-30T06:46:53.704Z,135
2018-03-30T06:47:34.139Z,165
2018-03-30T06:48:14.548Z,140
2018-03-30T06:48:54.918Z,175
2018-03-30T06:49:35.336Z,100
2018-03-30T06:50:15.749Z,175
2018-03-30T06:50:56.141Z,130
2018-03-30T06:51:36.508Z,160
2018-03-30T06:52:16.875Z,115
2018-03-30T06:52:57.285Z,155
2018-03-30T06:53:37.700Z,90
2018-03-30T06:54:18.131Z,140
2018-03-30T06:54:58.504Z,90
2018-03-30T06:55:38.895Z,115
2018-03-30T06:56:19.354Z,60
2018-03-30T06:56:59.707Z,55
2018-03-30T06:57:40.170Z,55
2018-03-30T06:58:20.516Z,55
2018-03-30T06:59:00.858Z,55
2018-03-30T06:59:41.266Z,55
2018-03-30T07:00:21.627Z,50
2018-03-30T07:01:02.044Z,50
2018-03-30T07:01:42.406Z,50
2018-03-30T07:02:22.807Z,50
2018-03-30T07:03:03.213Z,50
2018-03-30T07:03:43.618Z,45
2018-03-30T07:04:23.997Z,45
2018-03-30T07:05:04.401Z,45
2018-03-30T07:05:44.836Z,45
2018-03-30T07:06:25.178Z,45
2018-03-30T07:07:05.576Z,45
2018-03-30T07:07:45.984Z,45
2018-03-30T07:08:26.424Z,45
2018-03-30T07:09:06.860Z,45
2018-03-30T07:09:47.198Z,45
2018-03-30T07:10:27.565Z,45
2018-03-30T07:11:08.014Z,45
2018-03-30T07:11:48.365Z,45
2018-03-30T07:12:28.763Z,45
2018-03-30T07:13:09.184Z,40
2018-03-30T07:13:49.605Z,40
2018-03-30T07:14:29.973Z,40
2018-03-30T07:15:10.402Z,40
2018-03-30T07:15:50.792Z,40
2018-03-30T07:16:31.185Z,35
2018-03-30T07:17:11.545Z,40
2018-03-30T07:17:51.919Z,35
2018-03-30T07:18:32.333Z,35
2018-03-30T07:19:12.727Z,35
2018-03-30T07:19:53.132Z,35
2018-03-30T07:20:33.490Z,35
2018-03-30T07:21:13.927Z,35
2018-03-30T07:21:54.322Z,35
2018-03-30T07:22:34.760Z,35
2018-03-30T07:23:15.078Z,35
2018-03-30T07:23:55.453Z,40
2018-03-30T07:24:35.846Z,40
2018-03-30T07:25:16.285Z,40
2018-03-30T07:25:56.724Z,45
2018-03-30T07:26:37.078Z,45
2018-03-30T07:27:17.451Z,45
2018-03-30T07:27:57.843Z,50
2018-03-30T07:28:38.333Z,50
2018-03-30T07:29:18.721Z,50
2018-03-30T07:29:59.120Z,50
2018-03-30T07:30:39.480Z,50
2018-03-30T07:31:19.883Z,55
2018-03-30T07:32:00.297Z,55
2018-03-30T07:32:40.696Z,55
2018-03-30T07:33:21.092Z,60
2018-03-30T07:34:01.537Z,65
2018-03-30T07:34:41.872Z,60
2018-03-30T07:35:22.311Z,65
2018-03-30T07:36:02.722Z,65
2018-03-30T07:36:43.153Z,70
2018-03-30T07:37:23.552Z,70
2018-03-30T07:38:03.906Z,75
2018-03-30T07:38:44.325Z,85
2018-03-30T07:39:24.750Z,85
2018-03-30T07:40:05.106Z,85
2018-03-30T07:40:45.478Z,90
2018-03-30T07:41:25.868Z,85
2018-03-30T07:42:06.270Z,90
2018-03-30T07:42:46.731Z,90
2018-03-30T07:43:27.173Z,95
2018-03-30T07:44:07.507Z,90
2018-03-30T07:44:47.929Z,95
2018-03-30T07:45:28.309Z,95
2018-03-30T07:46:08.697Z,95
2018-03-30T07:46:49.149Z,100
2018-03-30T07:47:29.544Z,100
2018-03-30T07:48:09.918Z,115
2018-03-30T07:48:50.278Z,110
2018-03-30T07:49:30.660Z,110
2018-03-30T07:51:51.771Z,110
2018-03-30T07:52:32.006Z,110
2018-03-30T07:53:12.400Z,140
2018-03-30T07:53:52.799Z,130
2018-03-30T07:54:33.212Z,130
2018-03-30T07:55:13.598Z,130
2018-03-30T07:55:53.985Z,125
2018-03-30T07:56:34.396Z,125
2018-03-30T07:57:14.931Z,125
2018-03-30T07:57:55.322Z,125
2018-03-30T07:58:35.719Z,120
2018-03-30T07:59:16.157Z,115
2018-03-30T07:59:56.907Z,115
2018-03-30T08:00:37.295Z,120
2018-03-30T08:01:17.739Z,120
2018-03-30T08:01:58.092Z,125
2018-03-30T08:02:38.529Z,125
2018-03-30T08:03:19.040Z,125
2018-03-30T08:03:59.417Z,125
2018-03-30T08:04:39.823Z,125
2018-03-30T08:05:20.395Z,125
2018-03-30T08:06:00.668Z,125
2018-03-30T08:06:41.071Z,120
2018-03-30T08:07:21.439Z,115
2018-03-30T08:08:01.882Z,110
2018-03-30T08:08:42.285Z,105
2018-03-30T08:09:22.678Z,90
2018-03-30T08:10:03.096Z,100
2018-03-30T08:10:43.484Z,100
2018-03-30T08:11:23.893Z,105
2018-03-30T08:12:04.372Z,105
2018-03-30T08:12:44.767Z,100
2018-03-30T08:13:25.216Z,100
2018-03-30T08:14:05.879Z,105
2018-03-30T08:14:46.209Z,105
2018-03-30T08:15:26.592Z,105
2018-03-30T08:16:08.101Z,105
2018-03-30T08:16:48.517Z,100
2018-03-30T08:17:28.967Z,95
2018-03-30T08:18:09.358Z,90
2018-03-30T08:20:51.269Z,95
2018-03-30T08:21:30.702Z,95
2018-03-30T08:22:11.121Z,95
2018-03-30T08:22:52.212Z,95
2018-03-30T08:23:32.720Z,95
2018-03-30T08:24:13.125Z,95
2018-03-30T08:24:54.216Z,95
2018-03-30T08:25:34.577Z,95
2018-03-30T08:26:14.975Z,95
2018-03-30T08:26:55.376Z,95
2018-03-30T08:27:35.762Z,95
2018-03-30T08:28:16.735Z,95
2018-03-30T08:28:57.124Z,95
2018-03-30T08:29:37.548Z,95
2018-03-30T08:30:18.064Z,95
2018-03-30T08:30:58.440Z,95
2018-03-30T08:31:38.967Z,95
2018-03-30T08:32:19.263Z,95
2018-03-30T08:32:59.662Z,95
2018-03-30T08:33:40.301Z,95
2018-03-30T08:34:20.985Z,95
2018-03-30T08:35:01.424Z,90
2018-03-30T08:35:41.808Z,90
2018-03-30T08:36:22.470Z,90
2018-03-30T08:37:03.824Z,90
2018-03-30T08:37:44.251Z,85
2018-03-30T08:38:24.730Z,85
2018-03-30T08:39:05.118Z,90
2018-03-30T08:39:46.216Z,90
2018-03-30T08:40:27.344Z,90
2018-03-30T08:41:07.823Z,90
2018-03-30T08:41:48.347Z,90
2018-03-30T08:42:28.668Z,95
2018-03-30T08:43:09.285Z,95
2018-03-30T08:43:49.641Z,95
2018-03-30T08:44:30.026Z,95
2018-03-30T08:45:10.538Z,95
2018-03-30T08:45:50.858Z,90
2018-03-30T08:46:31.217Z,90
2018-03-30T08:47:12.097Z,90
2018-03-30T08:47:52.643Z,90
2018-03-30T08:48:32.995Z,85
2018-03-30T08:49:13.660Z,85
2018-03-30T08:49:54.167Z,80
2018-03-30T08:50:34.439Z,80
2018-03-30T08:51:15.116Z,80
2018-03-30T08:51:55.489Z,80
2018-03-30T08:52:35.956Z,80
2018-03-30T08:53:16.805Z,80
2018-03-30T08:53:57.171Z,80
2018-03-30T08:54:38.005Z,80
2018-03-30T08:55:18.461Z,85
2018-03-30T08:55:59.355Z,85
2018-03-30T08:56:42.595Z,90
2018-03-30T08:57:23.093Z,90
2018-03-30T08:58:03.386Z,85
2018-03-30T08:58:43.806Z,85
2018-03-30T08:59:24.230Z,85
2018-03-30T09:00:05.132Z,85
2018-03-30T09:00:45.602Z,85
2018-03-30T09:01:27.015Z,85
2018-03-30T09:02:06.634Z,85
2018-03-30T09:02:47.074Z,90
2018-03-30T09:03:30.336Z,90
2018-03-30T09:04:11.555Z,90
2018-03-30T09:04:52.747Z,85
2018-03-30T09:05:32.627Z,90
2018-03-30T09:06:13.130Z,90
2018-03-30T09:06:53.709Z,90
2018-03-30T09:07:34.444Z,90
2018-03-30T09:08:14.912Z,90
2018-03-30T09:08:55.402Z,90
2018-03-30T09:09:35.727Z,90
2018-03-30T09:10:16.269Z,90
2018-03-30T09:10:57.219Z,90
2018-03-30T09:11:37.819Z,90
2018-03-30T09:12:18.318Z,90
2018-03-30T09:12:58.671Z,85
2018-03-30T09:13:39.108Z,90
2018-03-30T09:14:20.018Z,90
2018-03-30T09:15:00.025Z,95
2018-03-30T09:15:41.052Z,90
2018-03-30T09:16:21.832Z,90
2018-03-30T09:17:02.347Z,90
2018-03-30T09:17:43.378Z,90
2018-03-30T09:18:24.036Z,90
2018-03-30T09:19:04.399Z,90
2018-03-30T09:19:45.013Z,90
2018-03-30T09:20:25.689Z,85
2018-03-30T09:21:06.048Z,85
2018-03-30T09:21:46.750Z,85
2018-03-30T09:25:41.433Z,80
2018-03-30T09:26:22.989Z,85
2018-03-30T09:27:03.418Z,80
2018-03-30T09:27:44.013Z,80
2018-03-30T09:28:24.490Z,80
2018-03-30T09:29:06.664Z,80
2018-03-30T09:29:46.807Z,80
2018-03-30T09:30:27.216Z,80
2018-03-30T09:31:08.514Z,80
2018-03-30T09:31:48.941Z,85
2018-03-30T09:32:29.467Z,85
2018-03-30T09:33:10.192Z,85
2018-03-30T09:33:50.778Z,85
2018-03-30T09:34:31.288Z,80
2018-03-30T09:35:12.138Z,85
2018-03-30T09:35:53.506Z,85
2018-03-30T09:36:34.432Z,85
2018-03-30T09:37:14.574Z,85
2018-03-30T09:37:55.223Z,80
2018-03-30T09:38:35.718Z,85
2018-03-30T09:39:16.144Z,85
2018-03-30T09:39:56.554Z,85
2018-03-30T09:40:36.973Z,80
2018-03-30T09:41:17.673Z,80
2018-03-30T09:41:58.167Z,80
2018-03-30T09:42:38.545Z,85
2018-03-30T09:43:19.006Z,85
2018-03-30T09:43:59.438Z,85
2018-03-30T09:44:39.783Z,85
2018-03-30T09:45:20.230Z,85
2018-03-30T09:46:00.606Z,85
2018-03-30T09:46:41.183Z,85
2018-03-30T09:47:21.496Z,85
2018-03-30T09:48:01.896Z,85
2018-03-30T09:48:42.314Z,90
2018-03-30T09:49:22.784Z,90
2018-03-30T09:50:03.215Z,90
2018-03-30T09:50:43.598Z,90
2018-03-30T09:53:25.421Z,85
2018-03-30T09:54:05.951Z,80
2018-03-30T09:54:46.925Z,85
2018-03-30T09:55:27.436Z,85
2018-03-30T09:56:08.451Z,85
2018-03-30T09:56:48.810Z,85
2018-03-30T09:57:29.162Z,85
2018-03-30T09:58:09.593Z,85
2018-03-30T09:58:50.108Z,85
2018-03-30T09:59:30.427Z,90
2018-03-30T10:00:11.134Z,90
2018-03-30T10:00:51.847Z,90
2018-03-30T10:01:36.401Z,90
2018-03-30T10:02:16.857Z,90
2018-03-30T10:02:57.264Z,90
2018-03-30T10:03:37.733Z,90
2018-03-30T10:04:18.177Z,90
2018-03-30T10:04:58.577Z,90
2018-03-30T10:05:39.006Z,90
2018-03-30T10:44:43.803Z,75
2018-03-30T10:45:25.639Z,75
2018-03-30T10:46:06.076Z,75
2018-03-30T10:46:46.574Z,75
2018-03-30T10:47:26.992Z,75
2018-03-30T10:48:07.421Z,75
2018-03-30T10:48:47.887Z,75
2018-03-30T10:49:28.424Z,75
2018-03-30T10:50:09.301Z,75
2018-03-30T10:50:49.756Z,75
2018-03-30T10:51:30.840Z,70
2018-03-30T10:52:10.865Z,70
2018-03-30T10:52:51.526Z,70
2018-03-30T10:53:32.023Z,70
2018-03-30T10:54:12.898Z,70
2018-03-30T10:54:53.442Z,70
2018-03-30T10:55:33.844Z,70
2018-03-30T10:56:14.155Z,75
2018-03-30T10:58:28.331Z,70
2018-03-30T10:59:08.714Z,65
2018-03-30T10:59:49.138Z,65
2018-03-30T11:00:30.210Z,65
2018-03-30T11:01:10.603Z,70
2018-03-30T11:01:51.001Z,70
2018-03-30T11:02:31.420Z,70
2018-03-30T11:03:11.918Z,70
2018-03-30T11:03:52.989Z,70
2018-03-30T11:04:33.333Z,75
2018-03-30T11:05:13.814Z,70
2018-03-30T11:05:57.449Z,70
2018-03-30T11:06:37.648Z,75
2018-03-30T11:07:18.068Z,75
2018-03-30T11:07:58.637Z,75
2018-03-30T11:08:39.083Z,75
2018-03-30T11:09:20.473Z,75
2018-03-30T11:10:00.863Z,75
2018-03-30T11:10:41.428Z,75
2018-03-30T11:11:21.753Z,80
2018-03-30T11:12:02.397Z,75
2018-03-30T11:12:42.569Z,75
2018-03-30T11:13:23.213Z,80
2018-03-30T11:14:03.643Z,80
2018-03-30T11:14:44.069Z,75
2018-03-30T11:15:24.582Z,70
2018-03-30T11:16:05.829Z,75
2018-03-30T11:16:45.729Z,75
2018-03-30T11:17:25.998Z,75
2018-03-30T11:18:07.587Z,75
2018-03-30T11:18:48.215Z,70
2018-03-30T11:19:28.590Z,70
2018-03-30T11:20:09.032Z,75
2018-03-30T11:20:49.417Z,70
2018-03-30T11:21:30.308Z,75
2018-03-30T11:22:11.296Z,70
2018-03-30T11:22:51.533Z,70
2018-03-30T11:23:32.301Z,75
2018-03-30T11:24:12.714Z,70
2018-03-30T11:24:53.554Z,70
2018-03-30T11:25:34.352Z,70
2018-03-30T11:26:14.660Z,75
2018-03-30T11:26:55.628Z,70
2018-03-30T11:27:35.899Z,65
2018-03-30T11:28:16.367Z,70